sensor_id;sensor_type;location;lat;lon;timestamp;temperature;humidity
54158;DHT22;40065;49.894;10.358;2022-09-11T00:00:59;16.50;99.90
54158;DHT22;40065;49.894;10.358;2022-09-11T00:06:05;16.50;99.90
54158;DHT22;40065;49.894;10.358;2022-09-11T00:11:14;16.40;99.90
54158;DHT22;40065;49.894;10.358;2022-09-11T00:16:25;16.30;99.90
54158;DHT22;40065;49.894;10.358;2022-09-11T00:21:27;16.20;99.90
54158;DHT22;40065;49.894;10.358;2022-09-11T00:26:30;16.20;99.90
54158;DHT22;40065;49.894;10.358;2022-09-11T00:31:32;16.20;99.90
54158;DHT22;40065;49.894;10.358;2022-09-11T00:36:34;16.10;99.90
54158;DHT22;40065;49.894;10.358;2022-09-11T00:41:44;16.10;99.90
54158;DHT22;40065;49.894;10.358;2022-09-11T00:46:50;16.20;99.90
54158;DHT22;40065;49.894;10.358;2022-09-11T00:52:14;16.30;99.90
54158;DHT22;40065;49.894;10.358;2022-09-11T00:57:20;16.40;99.90
54158;DHT22;40065;49.894;10.358;2022-09-11T01:02:25;16.30;99.90
54158;DHT22;40065;49.894;10.358;2022-09-11T01:07:30;16.30;99.90
54158;DHT22;40065;49.894;10.358;2022-09-11T01:12:52;16.30;99.90
54158;DHT22;40065;49.894;10.358;2022-09-11T01:28:14;16.30;99.90
54158;DHT22;40065;49.894;10.358;2022-09-11T01:33:46;16.30;99.90
54158;DHT22;40065;49.894;10.358;2022-09-11T01:38:55;16.40;99.90
54158;DHT22;40065;49.894;10.358;2022-09-11T01:44:05;16.40;99.90
54158;DHT22;40065;49.894;10.358;2022-09-11T01:49:19;16.30;99.90
54158;DHT22;40065;49.894;10.358;2022-09-11T01:54:27;16.40;99.90
54158;DHT22;40065;49.894;10.358;2022-09-11T01:59:38;16.30;99.90
54158;DHT22;40065;49.894;10.358;2022-09-11T02:04:48;16.40;99.90
54158;DHT22;40065;49.894;10.358;2022-09-11T02:09:56;16.40;99.90
54158;DHT22;40065;49.894;10.358;2022-09-11T02:15:04;16.40;99.90
54158;DHT22;40065;49.894;10.358;2022-09-11T02:20:06;16.50;99.90
54158;DHT22;40065;49.894;10.358;2022-09-11T02:25:10;16.40;99.90
54158;DHT22;40065;49.894;10.358;2022-09-11T02:30:12;16.40;99.90
54158;DHT22;40065;49.894;10.358;2022-09-11T02:35:15;16.40;99.90
54158;DHT22;40065;49.894;10.358;2022-09-11T02:40:30;16.40;99.90
54158;DHT22;40065;49.894;10.358;2022-09-11T02:51:04;16.40;99.90
54158;DHT22;40065;49.894;10.358;2022-09-11T02:56:09;16.40;99.90
54158;DHT22;40065;49.894;10.358;2022-09-11T03:01:13;16.40;99.90
54158;DHT22;40065;49.894;10.358;2022-09-11T03:06:19;16.40;99.90
54158;DHT22;40065;49.894;10.358;2022-09-11T03:11:21;16.30;99.90
54158;DHT22;40065;49.894;10.358;2022-09-11T03:16:24;16.40;99.90
54158;DHT22;40065;49.894;10.358;2022-09-11T03:21:26;16.40;99.90
54158;DHT22;40065;49.894;10.358;2022-09-11T03:26:28;16.40;99.90
54158;DHT22;40065;49.894;10.358;2022-09-11T03:31:32;16.40;99.90
54158;DHT22;40065;49.894;10.358;2022-09-11T03:36:40;16.50;99.90
54158;DHT22;40065;49.894;10.358;2022-09-11T03:41:42;16.40;99.90
54158;DHT22;40065;49.894;10.358;2022-09-11T03:46:44;16.40;99.90
54158;DHT22;40065;49.894;10.358;2022-09-11T03:51:54;16.30;99.90
54158;DHT22;40065;49.894;10.358;2022-09-11T03:56:58;16.30;99.90
54158;DHT22;40065;49.894;10.358;2022-09-11T04:02:00;16.30;99.90
54158;DHT22;40065;49.894;10.358;2022-09-11T04:07:03;16.30;99.90
54158;DHT22;40065;49.894;10.358;2022-09-11T04:12:06;16.20;99.90
54158;DHT22;40065;49.894;10.358;2022-09-11T04:17:08;16.20;99.90
54158;DHT22;40065;49.894;10.358;2022-09-11T04:22:12;16.20;99.90
54158;DHT22;40065;49.894;10.358;2022-09-11T04:27:14;16.20;99.90
54158;DHT22;40065;49.894;10.358;2022-09-11T04:32:16;16.10;99.90
54158;DHT22;40065;49.894;10.358;2022-09-11T04:37:18;16.20;99.90
54158;DHT22;40065;49.894;10.358;2022-09-11T04:42:20;16.20;99.90
54158;DHT22;40065;49.894;10.358;2022-09-11T04:47:25;16.20;99.90
54158;DHT22;40065;49.894;10.358;2022-09-11T04:52:27;16.20;99.90
54158;DHT22;40065;49.894;10.358;2022-09-11T04:57:29;16.10;99.90
54158;DHT22;40065;49.894;10.358;2022-09-11T05:02:33;16.10;99.90
54158;DHT22;40065;49.894;10.358;2022-09-11T05:07:35;16.10;99.90
54158;DHT22;40065;49.894;10.358;2022-09-11T05:12:39;16.00;99.90
54158;DHT22;40065;49.894;10.358;2022-09-11T05:17:42;16.10;99.90
54158;DHT22;40065;49.894;10.358;2022-09-11T05:22:45;16.10;99.90
54158;DHT22;40065;49.894;10.358;2022-09-11T05:27:47;16.10;99.90
54158;DHT22;40065;49.894;10.358;2022-09-11T05:32:53;16.10;99.90
54158;DHT22;40065;49.894;10.358;2022-09-11T05:37:56;16.20;99.90
54158;DHT22;40065;49.894;10.358;2022-09-11T05:42:57;16.20;99.90
54158;DHT22;40065;49.894;10.358;2022-09-11T05:48:00;16.20;99.90
54158;DHT22;40065;49.894;10.358;2022-09-11T05:53:04;16.20;99.90
54158;DHT22;40065;49.894;10.358;2022-09-11T05:58:06;16.40;99.90
54158;DHT22;40065;49.894;10.358;2022-09-11T06:03:08;16.40;99.90
54158;DHT22;40065;49.894;10.358;2022-09-11T06:08:16;16.40;99.90
54158;DHT22;40065;49.894;10.358;2022-09-11T06:13:18;16.50;99.90
54158;DHT22;40065;49.894;10.358;2022-09-11T06:18:23;16.60;99.90
54158;DHT22;40065;49.894;10.358;2022-09-11T06:23:27;16.60;99.90
54158;DHT22;40065;49.894;10.358;2022-09-11T06:28:29;16.80;99.90
54158;DHT22;40065;49.894;10.358;2022-09-11T06:33:34;16.90;99.90
54158;DHT22;40065;49.894;10.358;2022-09-11T06:38:37;17.00;99.90
54158;DHT22;40065;49.894;10.358;2022-09-11T06:43:42;17.10;99.90
54158;DHT22;40065;49.894;10.358;2022-09-11T06:48:47;17.10;99.90
54158;DHT22;40065;49.894;10.358;2022-09-11T06:53:58;17.20;99.90
54158;DHT22;40065;49.894;10.358;2022-09-11T06:59:06;17.30;99.90
54158;DHT22;40065;49.894;10.358;2022-09-11T07:04:08;17.50;99.90
54158;DHT22;40065;49.894;10.358;2022-09-11T07:09:11;17.60;99.90
54158;DHT22;40065;49.894;10.358;2022-09-11T07:14:17;17.70;99.90
54158;DHT22;40065;49.894;10.358;2022-09-11T07:19:24;17.80;99.90
54158;DHT22;40065;49.894;10.358;2022-09-11T07:24:26;17.80;99.90
54158;DHT22;40065;49.894;10.358;2022-09-11T07:29:29;17.70;99.90
54158;DHT22;40065;49.894;10.358;2022-09-11T07:34:32;17.80;99.90
54158;DHT22;40065;49.894;10.358;2022-09-11T07:39:38;17.80;99.90
54158;DHT22;40065;49.894;10.358;2022-09-11T07:44:47;18.10;99.90
54158;DHT22;40065;49.894;10.358;2022-09-11T07:49:49;18.30;99.90
54158;DHT22;40065;49.894;10.358;2022-09-11T07:54:52;18.10;99.90
54158;DHT22;40065;49.894;10.358;2022-09-11T07:59:57;18.00;99.90
54158;DHT22;40065;49.894;10.358;2022-09-11T08:05:09;18.10;99.90
54158;DHT22;40065;49.894;10.358;2022-09-11T08:10:11;18.00;99.90
54158;DHT22;40065;49.894;10.358;2022-09-11T08:15:30;18.10;99.90
54158;DHT22;40065;49.894;10.358;2022-09-11T08:20:33;18.30;99.90
54158;DHT22;40065;49.894;10.358;2022-09-11T08:25:37;18.30;99.90
54158;DHT22;40065;49.894;10.358;2022-09-11T08:30:41;18.50;99.90
54158;DHT22;40065;49.894;10.358;2022-09-11T08:35:43;18.60;99.90
54158;DHT22;40065;49.894;10.358;2022-09-11T08:40:46;18.60;99.90
54158;DHT22;40065;49.894;10.358;2022-09-11T08:45:48;18.60;99.90
54158;DHT22;40065;49.894;10.358;2022-09-11T08:50:52;18.80;99.90
54158;DHT22;40065;49.894;10.358;2022-09-11T08:56:06;19.10;99.90
54158;DHT22;40065;49.894;10.358;2022-09-11T09:01:29;19.10;99.90
54158;DHT22;40065;49.894;10.358;2022-09-11T09:11:55;20.00;99.90
54158;DHT22;40065;49.894;10.358;2022-09-11T09:17:12;20.50;99.90
54158;DHT22;40065;49.894;10.358;2022-09-11T09:23:35;21.40;99.90
54158;DHT22;40065;49.894;10.358;2022-09-11T09:28:20;22.30;99.90
54158;DHT22;40065;49.894;10.358;2022-09-11T09:33:47;23.50;97.50
54158;DHT22;40065;49.894;10.358;2022-09-11T09:38:51;24.70;95.60
54158;DHT22;40065;49.894;10.358;2022-09-11T09:44:27;24.50;94.90
54158;DHT22;40065;49.894;10.358;2022-09-11T09:49:33;26.20;92.70
54158;DHT22;40065;49.894;10.358;2022-09-11T09:54:35;24.60;92.90
54158;DHT22;40065;49.894;10.358;2022-09-11T09:59:50;23.10;95.40
54158;DHT22;40065;49.894;10.358;2022-09-11T10:05:13;22.20;97.40
54158;DHT22;40065;49.894;10.358;2022-09-11T10:15:37;24.70;92.40
54158;DHT22;40065;49.894;10.358;2022-09-11T10:20:39;25.10;92.70
54158;DHT22;40065;49.894;10.358;2022-09-11T10:25:46;23.90;94.10
54158;DHT22;40065;49.894;10.358;2022-09-11T10:30:59;24.60;93.10
54158;DHT22;40065;49.894;10.358;2022-09-11T10:36:05;25.30;88.40
54158;DHT22;40065;49.894;10.358;2022-09-11T10:41:18;26.60;85.00
54158;DHT22;40065;49.894;10.358;2022-09-11T10:51:26;25.50;88.70
54158;DHT22;40065;49.894;10.358;2022-09-11T10:56:28;24.40;91.90
54158;DHT22;40065;49.894;10.358;2022-09-11T11:01:30;26.20;89.20
54158;DHT22;40065;49.894;10.358;2022-09-11T11:06:36;27.00;86.70
54158;DHT22;40065;49.894;10.358;2022-09-11T11:12:00;28.30;81.60
54158;DHT22;40065;49.894;10.358;2022-09-11T11:27:47;23.10;91.70
54158;DHT22;40065;49.894;10.358;2022-09-11T11:38:47;22.10;95.20
54158;DHT22;40065;49.894;10.358;2022-09-11T11:43:52;22.00;95.60
54158;DHT22;40065;49.894;10.358;2022-09-11T11:49:00;22.00;95.20
54158;DHT22;40065;49.894;10.358;2022-09-11T11:54:24;22.00;95.10
54158;DHT22;40065;49.894;10.358;2022-09-11T12:05:04;23.60;93.20
54158;DHT22;40065;49.894;10.358;2022-09-11T12:10:24;25.90;87.50
54158;DHT22;40065;49.894;10.358;2022-09-11T12:15:29;26.10;83.60
54158;DHT22;40065;49.894;10.358;2022-09-11T12:20:35;27.30;79.60
54158;DHT22;40065;49.894;10.358;2022-09-11T12:31:06;25.40;85.50
54158;DHT22;40065;49.894;10.358;2022-09-11T12:36:23;24.00;86.50
54158;DHT22;40065;49.894;10.358;2022-09-11T12:41:28;23.30;90.50
54158;DHT22;40065;49.894;10.358;2022-09-11T12:51:41;22.80;91.80
54158;DHT22;40065;49.894;10.358;2022-09-11T12:57:00;23.00;92.00
54158;DHT22;40065;49.894;10.358;2022-09-11T13:02:13;23.30;91.50
54158;DHT22;40065;49.894;10.358;2022-09-11T13:07:47;23.80;90.20
54158;DHT22;40065;49.894;10.358;2022-09-11T13:12:53;23.80;88.10
54158;DHT22;40065;49.894;10.358;2022-09-11T13:17:56;23.70;90.00
54158;DHT22;40065;49.894;10.358;2022-09-11T13:23:14;24.40;87.20
54158;DHT22;40065;49.894;10.358;2022-09-11T13:28:18;26.70;81.20
54158;DHT22;40065;49.894;10.358;2022-09-11T13:33:28;26.70;79.50
54158;DHT22;40065;49.894;10.358;2022-09-11T13:38:32;27.50;79.70
54158;DHT22;40065;49.894;10.358;2022-09-11T13:43:36;27.40;78.40
54158;DHT22;40065;49.894;10.358;2022-09-11T13:48:44;25.60;82.10
54158;DHT22;40065;49.894;10.358;2022-09-11T13:54:35;25.10;83.10
54158;DHT22;40065;49.894;10.358;2022-09-11T13:59:35;24.20;85.50
54158;DHT22;40065;49.894;10.358;2022-09-11T14:04:40;23.40;88.40
54158;DHT22;40065;49.894;10.358;2022-09-11T14:09:46;22.70;91.10
54158;DHT22;40065;49.894;10.358;2022-09-11T14:14:51;22.00;95.00
54158;DHT22;40065;49.894;10.358;2022-09-11T14:19:59;21.80;98.10
54158;DHT22;40065;49.894;10.358;2022-09-11T14:30:31;22.60;93.70
54158;DHT22;40065;49.894;10.358;2022-09-11T14:35:38;23.30;92.40
54158;DHT22;40065;49.894;10.358;2022-09-11T14:40:48;23.90;90.40
54158;DHT22;40065;49.894;10.358;2022-09-11T14:45:52;24.20;89.90
54158;DHT22;40065;49.894;10.358;2022-09-11T14:50:55;24.30;89.10
54158;DHT22;40065;49.894;10.358;2022-09-11T14:55:58;24.20;88.30
54158;DHT22;40065;49.894;10.358;2022-09-11T15:01:00;24.00;90.10
54158;DHT22;40065;49.894;10.358;2022-09-11T15:06:02;24.20;88.60
54158;DHT22;40065;49.894;10.358;2022-09-11T15:11:04;25.00;86.60
54158;DHT22;40065;49.894;10.358;2022-09-11T15:16:06;25.00;86.30
54158;DHT22;40065;49.894;10.358;2022-09-11T15:21:10;25.10;87.60
54158;DHT22;40065;49.894;10.358;2022-09-11T15:26:12;25.20;84.50
54158;DHT22;40065;49.894;10.358;2022-09-11T15:31:14;25.00;85.90
54158;DHT22;40065;49.894;10.358;2022-09-11T15:36:16;24.50;88.80
54158;DHT22;40065;49.894;10.358;2022-09-11T15:41:22;23.80;89.40
54158;DHT22;40065;49.894;10.358;2022-09-11T15:46:25;23.20;90.80
54158;DHT22;40065;49.894;10.358;2022-09-11T15:51:27;22.80;90.80
54158;DHT22;40065;49.894;10.358;2022-09-11T15:56:30;22.70;90.80
54158;DHT22;40065;49.894;10.358;2022-09-11T16:01:33;22.70;90.10
54158;DHT22;40065;49.894;10.358;2022-09-11T16:06:38;22.50;91.20
54158;DHT22;40065;49.894;10.358;2022-09-11T16:11:40;22.30;91.00
54158;DHT22;40065;49.894;10.358;2022-09-11T16:16:42;22.10;91.40
54158;DHT22;40065;49.894;10.358;2022-09-11T16:21:46;21.80;91.30
54158;DHT22;40065;49.894;10.358;2022-09-11T16:26:48;21.60;90.20
54158;DHT22;40065;49.894;10.358;2022-09-11T16:31:50;21.30;90.90
54158;DHT22;40065;49.894;10.358;2022-09-11T16:36:52;21.10;92.60
54158;DHT22;40065;49.894;10.358;2022-09-11T16:41:53;21.00;92.50
54158;DHT22;40065;49.894;10.358;2022-09-11T16:46:56;20.90;93.10
54158;DHT22;40065;49.894;10.358;2022-09-11T16:51:58;20.90;93.30
54158;DHT22;40065;49.894;10.358;2022-09-11T16:57:00;20.80;93.80
54158;DHT22;40065;49.894;10.358;2022-09-11T17:02:02;20.70;94.60
54158;DHT22;40065;49.894;10.358;2022-09-11T17:07:04;20.60;94.60
54158;DHT22;40065;49.894;10.358;2022-09-11T17:12:05;20.40;95.40
54158;DHT22;40065;49.894;10.358;2022-09-11T17:17:07;20.30;95.30
54158;DHT22;40065;49.894;10.358;2022-09-11T17:22:09;20.20;95.80
54158;DHT22;40065;49.894;10.358;2022-09-11T17:27:11;20.10;95.60
54158;DHT22;40065;49.894;10.358;2022-09-11T17:32:12;20.00;95.80
54158;DHT22;40065;49.894;10.358;2022-09-11T17:37:30;19.90;96.00
54158;DHT22;40065;49.894;10.358;2022-09-11T17:42:32;19.80;96.50
54158;DHT22;40065;49.894;10.358;2022-09-11T17:47:34;19.80;96.60
54158;DHT22;40065;49.894;10.358;2022-09-11T17:52:37;19.60;97.30
54158;DHT22;40065;49.894;10.358;2022-09-11T17:57:38;19.40;98.40
54158;DHT22;40065;49.894;10.358;2022-09-11T18:02:43;19.20;99.90
54158;DHT22;40065;49.894;10.358;2022-09-11T18:07:46;18.90;99.90
54158;DHT22;40065;49.894;10.358;2022-09-11T18:12:48;18.80;99.90
54158;DHT22;40065;49.894;10.358;2022-09-11T18:17:50;18.70;99.90
54158;DHT22;40065;49.894;10.358;2022-09-11T18:22:54;18.70;99.90
54158;DHT22;40065;49.894;10.358;2022-09-11T18:27:56;18.50;99.90
54158;DHT22;40065;49.894;10.358;2022-09-11T18:33:00;18.10;99.90
54158;DHT22;40065;49.894;10.358;2022-09-11T18:38:03;17.90;99.90
54158;DHT22;40065;49.894;10.358;2022-09-11T18:43:05;17.70;99.90
54158;DHT22;40065;49.894;10.358;2022-09-11T18:48:09;17.60;99.90
54158;DHT22;40065;49.894;10.358;2022-09-11T18:53:11;17.50;99.90
54158;DHT22;40065;49.894;10.358;2022-09-11T18:58:13;17.40;99.90
54158;DHT22;40065;49.894;10.358;2022-09-11T19:03:14;17.20;99.90
54158;DHT22;40065;49.894;10.358;2022-09-11T19:08:21;17.10;99.90
54158;DHT22;40065;49.894;10.358;2022-09-11T19:13:24;17.20;99.90
54158;DHT22;40065;49.894;10.358;2022-09-11T19:18:26;17.10;99.90
54158;DHT22;40065;49.894;10.358;2022-09-11T19:23:33;16.90;99.90
54158;DHT22;40065;49.894;10.358;2022-09-11T19:28:38;16.90;99.90
54158;DHT22;40065;49.894;10.358;2022-09-11T19:33:42;16.60;99.90
54158;DHT22;40065;49.894;10.358;2022-09-11T19:38:48;16.60;99.90
54158;DHT22;40065;49.894;10.358;2022-09-11T19:43:50;16.50;99.90
54158;DHT22;40065;49.894;10.358;2022-09-11T19:48:54;16.50;99.90
54158;DHT22;40065;49.894;10.358;2022-09-11T19:54:00;16.50;99.90
54158;DHT22;40065;49.894;10.358;2022-09-11T19:59:06;16.60;99.90
54158;DHT22;40065;49.894;10.358;2022-09-11T20:04:09;16.30;99.90
54158;DHT22;40065;49.894;10.358;2022-09-11T20:09:11;16.20;99.90
54158;DHT22;40065;49.894;10.358;2022-09-11T20:14:31;16.20;99.90
54158;DHT22;40065;49.894;10.358;2022-09-11T20:19:33;16.10;99.90
54158;DHT22;40065;49.894;10.358;2022-09-11T20:24:35;16.00;99.90
54158;DHT22;40065;49.894;10.358;2022-09-11T20:29:36;15.80;99.90
54158;DHT22;40065;49.894;10.358;2022-09-11T20:34:40;16.00;99.90
54158;DHT22;40065;49.894;10.358;2022-09-11T20:39:42;15.60;99.90
54158;DHT22;40065;49.894;10.358;2022-09-11T20:44:44;15.60;99.90
54158;DHT22;40065;49.894;10.358;2022-09-11T20:49:45;15.60;99.90
54158;DHT22;40065;49.894;10.358;2022-09-11T20:54:47;15.70;99.90
54158;DHT22;40065;49.894;10.358;2022-09-11T20:59:49;15.80;99.90
54158;DHT22;40065;49.894;10.358;2022-09-11T21:04:51;15.70;99.90
54158;DHT22;40065;49.894;10.358;2022-09-11T21:09:53;15.50;99.90
54158;DHT22;40065;49.894;10.358;2022-09-11T21:14:54;15.50;99.90
54158;DHT22;40065;49.894;10.358;2022-09-11T21:19:56;15.50;99.90
54158;DHT22;40065;49.894;10.358;2022-09-11T21:24:58;15.50;99.90
54158;DHT22;40065;49.894;10.358;2022-09-11T21:30:00;15.30;99.90
54158;DHT22;40065;49.894;10.358;2022-09-11T21:35:01;15.40;99.90
54158;DHT22;40065;49.894;10.358;2022-09-11T21:40:04;15.40;99.90
54158;DHT22;40065;49.894;10.358;2022-09-11T21:45:06;15.30;99.90
54158;DHT22;40065;49.894;10.358;2022-09-11T21:50:09;15.10;99.90
54158;DHT22;40065;49.894;10.358;2022-09-11T21:55:10;15.00;99.90
54158;DHT22;40065;49.894;10.358;2022-09-11T22:00:14;14.90;99.90
54158;DHT22;40065;49.894;10.358;2022-09-11T22:05:15;14.70;99.90
54158;DHT22;40065;49.894;10.358;2022-09-11T22:10:17;14.70;99.90
54158;DHT22;40065;49.894;10.358;2022-09-11T22:15:19;14.70;99.90
54158;DHT22;40065;49.894;10.358;2022-09-11T22:20:21;14.70;99.90
54158;DHT22;40065;49.894;10.358;2022-09-11T22:25:23;14.60;99.90
54158;DHT22;40065;49.894;10.358;2022-09-11T22:30:25;14.60;99.90
54158;DHT22;40065;49.894;10.358;2022-09-11T22:35:32;14.70;99.90
54158;DHT22;40065;49.894;10.358;2022-09-11T22:40:34;14.70;99.90
54158;DHT22;40065;49.894;10.358;2022-09-11T22:45:35;14.70;99.90
54158;DHT22;40065;49.894;10.358;2022-09-11T22:50:37;14.70;99.90
54158;DHT22;40065;49.894;10.358;2022-09-11T22:55:46;14.70;99.90
54158;DHT22;40065;49.894;10.358;2022-09-11T23:00:52;14.60;99.90
54158;DHT22;40065;49.894;10.358;2022-09-11T23:05:58;14.60;99.90
54158;DHT22;40065;49.894;10.358;2022-09-11T23:11:19;14.50;99.90
54158;DHT22;40065;49.894;10.358;2022-09-11T23:16:23;14.20;99.90
54158;DHT22;40065;49.894;10.358;2022-09-11T23:21:25;14.30;99.90
54158;DHT22;40065;49.894;10.358;2022-09-11T23:26:28;14.40;99.90
54158;DHT22;40065;49.894;10.358;2022-09-11T23:31:32;14.50;99.90
54158;DHT22;40065;49.894;10.358;2022-09-11T23:36:35;14.40;99.90
54158;DHT22;40065;49.894;10.358;2022-09-11T23:41:36;14.40;99.90
54158;DHT22;40065;49.894;10.358;2022-09-11T23:46:38;14.30;99.90
54158;DHT22;40065;49.894;10.358;2022-09-11T23:51:40;14.30;99.90
54158;DHT22;40065;49.894;10.358;2022-09-11T23:56:42;14.40;99.90
